sensor_id;sensor_type;location;lat;lon;timestamp;P1;durP1;ratioP1;P2;durP2;ratioP2
11665;SDS011;5889;51.350;6.708;2023-11-21T00:02:08;28.83;;;12.50;;
11665;SDS011;5889;51.350;6.708;2023-11-21T00:04:34;28.00;;;12.87;;
11665;SDS011;5889;51.350;6.708;2023-11-21T00:07:01;29.50;;;13.73;;
11665;SDS011;5889;51.350;6.708;2023-11-21T00:09:28;28.47;;;14.37;;
11665;SDS011;5889;51.350;6.708;2023-11-21T00:11:54;27.00;;;13.03;;
11665;SDS011;5889;51.350;6.708;2023-11-21T00:14:21;31.70;;;14.77;;
11665;SDS011;5889;51.350;6.708;2023-11-21T00:16:48;31.70;;;15.07;;
11665;SDS011;5889;51.350;6.708;2023-11-21T00:19:16;34.40;;;15.63;;
11665;SDS011;5889;51.350;6.708;2023-11-21T00:21:43;27.73;;;14.53;;
11665;SDS011;5889;51.350;6.708;2023-11-21T00:24:10;28.83;;;14.20;;
11665;SDS011;5889;51.350;6.708;2023-11-21T00:26:38;32.60;;;14.93;;
11665;SDS011;5889;51.350;6.708;2023-11-21T00:29:05;33.17;;;15.37;;
11665;SDS011;5889;51.350;6.708;2023-11-21T00:31:33;31.90;;;14.97;;
11665;SDS011;5889;51.350;6.708;2023-11-21T00:34:01;29.63;;;14.00;;
11665;SDS011;5889;51.350;6.708;2023-11-21T00:36:31;37.67;;;14.77;;
11665;SDS011;5889;51.350;6.708;2023-11-21T00:38:58;27.87;;;15.30;;
11665;SDS011;5889;51.350;6.708;2023-11-21T00:41:25;35.97;;;15.40;;
11665;SDS011;5889;51.350;6.708;2023-11-21T00:43:53;36.80;;;15.40;;
11665;SDS011;5889;51.350;6.708;2023-11-21T00:46:20;29.50;;;14.53;;
11665;SDS011;5889;51.350;6.708;2023-11-21T00:48:47;34.07;;;15.73;;
11665;SDS011;5889;51.350;6.708;2023-11-21T00:51:13;34.17;;;15.60;;
11665;SDS011;5889;51.350;6.708;2023-11-21T00:53:42;32.83;;;15.67;;
11665;SDS011;5889;51.350;6.708;2023-11-21T00:56:08;35.93;;;15.53;;
11665;SDS011;5889;51.350;6.708;2023-11-21T00:58:35;33.77;;;14.80;;
11665;SDS011;5889;51.350;6.708;2023-11-21T01:01:01;38.20;;;15.00;;
11665;SDS011;5889;51.350;6.708;2023-11-21T01:03:28;35.43;;;14.93;;
11665;SDS011;5889;51.350;6.708;2023-11-21T01:05:55;36.33;;;15.20;;
11665;SDS011;5889;51.350;6.708;2023-11-21T01:08:22;34.30;;;15.03;;
11665;SDS011;5889;51.350;6.708;2023-11-21T01:10:51;34.30;;;15.07;;
11665;SDS011;5889;51.350;6.708;2023-11-21T01:13:17;31.83;;;14.63;;
11665;SDS011;5889;51.350;6.708;2023-11-21T01:15:44;33.90;;;15.63;;
11665;SDS011;5889;51.350;6.708;2023-11-21T01:18:11;37.20;;;15.57;;
11665;SDS011;5889;51.350;6.708;2023-11-21T01:20:38;36.07;;;15.60;;
11665;SDS011;5889;51.350;6.708;2023-11-21T01:23:05;32.10;;;14.13;;
11665;SDS011;5889;51.350;6.708;2023-11-21T01:25:31;27.77;;;13.57;;
11665;SDS011;5889;51.350;6.708;2023-11-21T01:28:00;28.93;;;14.00;;
11665;SDS011;5889;51.350;6.708;2023-11-21T01:30:26;29.73;;;14.07;;
11665;SDS011;5889;51.350;6.708;2023-11-21T01:32:53;31.10;;;13.53;;
11665;SDS011;5889;51.350;6.708;2023-11-21T01:35:20;29.53;;;13.50;;
11665;SDS011;5889;51.350;6.708;2023-11-21T01:37:47;31.87;;;14.10;;
11665;SDS011;5889;51.350;6.708;2023-11-21T01:40:14;27.27;;;13.80;;
11665;SDS011;5889;51.350;6.708;2023-11-21T01:42:41;30.60;;;13.83;;
11665;SDS011;5889;51.350;6.708;2023-11-21T01:45:10;34.57;;;14.17;;
11665;SDS011;5889;51.350;6.708;2023-11-21T01:47:37;32.63;;;14.87;;
11665;SDS011;5889;51.350;6.708;2023-11-21T01:50:06;30.77;;;14.67;;
11665;SDS011;5889;51.350;6.708;2023-11-21T01:52:37;30.93;;;14.23;;
11665;SDS011;5889;51.350;6.708;2023-11-21T01:55:06;30.17;;;14.33;;
11665;SDS011;5889;51.350;6.708;2023-11-21T01:57:34;31.97;;;15.50;;
11665;SDS011;5889;51.350;6.708;2023-11-21T02:00:03;29.13;;;14.00;;
11665;SDS011;5889;51.350;6.708;2023-11-21T02:02:41;34.70;;;15.37;;
11665;SDS011;5889;51.350;6.708;2023-11-21T02:05:08;30.63;;;14.33;;
11665;SDS011;5889;51.350;6.708;2023-11-21T02:07:37;35.50;;;14.93;;
11665;SDS011;5889;51.350;6.708;2023-11-21T02:10:05;34.20;;;14.53;;
11665;SDS011;5889;51.350;6.708;2023-11-21T02:12:32;32.80;;;15.33;;
11665;SDS011;5889;51.350;6.708;2023-11-21T02:15:00;34.53;;;14.47;;
11665;SDS011;5889;51.350;6.708;2023-11-21T02:17:27;33.53;;;15.57;;
11665;SDS011;5889;51.350;6.708;2023-11-21T02:19:56;37.10;;;15.73;;
11665;SDS011;5889;51.350;6.708;2023-11-21T02:22:23;31.50;;;14.90;;
11665;SDS011;5889;51.350;6.708;2023-11-21T02:24:54;36.23;;;14.73;;
11665;SDS011;5889;51.350;6.708;2023-11-21T02:27:22;32.97;;;15.40;;
11665;SDS011;5889;51.350;6.708;2023-11-21T02:29:49;34.37;;;15.50;;
11665;SDS011;5889;51.350;6.708;2023-11-21T02:32:16;30.30;;;15.27;;
11665;SDS011;5889;51.350;6.708;2023-11-21T02:34:44;32.93;;;15.13;;
11665;SDS011;5889;51.350;6.708;2023-11-21T02:37:11;35.87;;;15.70;;
11665;SDS011;5889;51.350;6.708;2023-11-21T02:39:38;33.47;;;15.63;;
11665;SDS011;5889;51.350;6.708;2023-11-21T02:42:06;36.83;;;16.03;;
11665;SDS011;5889;51.350;6.708;2023-11-21T02:44:33;37.57;;;17.23;;
11665;SDS011;5889;51.350;6.708;2023-11-21T02:47:00;37.20;;;17.00;;
11665;SDS011;5889;51.350;6.708;2023-11-21T02:49:27;35.73;;;16.83;;
11665;SDS011;5889;51.350;6.708;2023-11-21T02:51:54;35.67;;;17.50;;
11665;SDS011;5889;51.350;6.708;2023-11-21T02:54:21;32.60;;;16.63;;
11665;SDS011;5889;51.350;6.708;2023-11-21T02:56:48;40.03;;;17.77;;
11665;SDS011;5889;51.350;6.708;2023-11-21T02:59:16;35.73;;;16.77;;
11665;SDS011;5889;51.350;6.708;2023-11-21T03:01:44;37.90;;;17.00;;
11665;SDS011;5889;51.350;6.708;2023-11-21T03:04:11;41.53;;;16.73;;
11665;SDS011;5889;51.350;6.708;2023-11-21T03:06:43;35.17;;;16.90;;
11665;SDS011;5889;51.350;6.708;2023-11-21T03:09:10;34.23;;;16.70;;
11665;SDS011;5889;51.350;6.708;2023-11-21T03:11:38;34.83;;;16.60;;
11665;SDS011;5889;51.350;6.708;2023-11-21T03:14:04;39.43;;;16.70;;
11665;SDS011;5889;51.350;6.708;2023-11-21T03:16:33;40.30;;;17.57;;
11665;SDS011;5889;51.350;6.708;2023-11-21T03:18:59;33.10;;;16.43;;
11665;SDS011;5889;51.350;6.708;2023-11-21T03:21:26;32.07;;;16.60;;
11665;SDS011;5889;51.350;6.708;2023-11-21T03:23:54;33.50;;;16.67;;
11665;SDS011;5889;51.350;6.708;2023-11-21T03:26:21;35.77;;;17.40;;
11665;SDS011;5889;51.350;6.708;2023-11-21T03:28:47;36.67;;;17.00;;
11665;SDS011;5889;51.350;6.708;2023-11-21T03:31:15;32.93;;;16.17;;
11665;SDS011;5889;51.350;6.708;2023-11-21T03:33:44;33.67;;;16.80;;
11665;SDS011;5889;51.350;6.708;2023-11-21T03:36:12;35.37;;;18.07;;
11665;SDS011;5889;51.350;6.708;2023-11-21T03:38:39;38.43;;;17.13;;
11665;SDS011;5889;51.350;6.708;2023-11-21T03:41:06;34.77;;;17.03;;
11665;SDS011;5889;51.350;6.708;2023-11-21T03:43:35;37.90;;;16.90;;
11665;SDS011;5889;51.350;6.708;2023-11-21T03:46:01;43.27;;;19.03;;
11665;SDS011;5889;51.350;6.708;2023-11-21T03:48:28;36.03;;;16.57;;
11665;SDS011;5889;51.350;6.708;2023-11-21T03:50:56;32.20;;;15.90;;
11665;SDS011;5889;51.350;6.708;2023-11-21T03:53:23;38.27;;;17.83;;
11665;SDS011;5889;51.350;6.708;2023-11-21T03:55:50;41.33;;;17.60;;
11665;SDS011;5889;51.350;6.708;2023-11-21T03:58:16;38.17;;;17.57;;
11665;SDS011;5889;51.350;6.708;2023-11-21T04:00:43;40.87;;;17.20;;
11665;SDS011;5889;51.350;6.708;2023-11-21T04:03:30;37.13;;;16.93;;
11665;SDS011;5889;51.350;6.708;2023-11-21T04:05:58;35.97;;;16.57;;
11665;SDS011;5889;51.350;6.708;2023-11-21T04:08:26;38.17;;;17.23;;
11665;SDS011;5889;51.350;6.708;2023-11-21T04:10:52;37.97;;;17.80;;
11665;SDS011;5889;51.350;6.708;2023-11-21T04:13:20;34.27;;;16.40;;
11665;SDS011;5889;51.350;6.708;2023-11-21T04:15:46;40.50;;;16.90;;
11665;SDS011;5889;51.350;6.708;2023-11-21T04:18:13;38.67;;;17.83;;
11665;SDS011;5889;51.350;6.708;2023-11-21T04:20:40;31.20;;;15.53;;
11665;SDS011;5889;51.350;6.708;2023-11-21T04:23:08;30.83;;;15.07;;
11665;SDS011;5889;51.350;6.708;2023-11-21T04:25:35;32.13;;;15.97;;
11665;SDS011;5889;51.350;6.708;2023-11-21T04:28:02;27.27;;;14.90;;
11665;SDS011;5889;51.350;6.708;2023-11-21T04:30:29;28.83;;;14.90;;
11665;SDS011;5889;51.350;6.708;2023-11-21T04:32:56;24.67;;;14.03;;
11665;SDS011;5889;51.350;6.708;2023-11-21T04:35:22;29.13;;;14.60;;
11665;SDS011;5889;51.350;6.708;2023-11-21T04:37:49;26.17;;;13.00;;
11665;SDS011;5889;51.350;6.708;2023-11-21T04:40:17;24.87;;;13.43;;
11665;SDS011;5889;51.350;6.708;2023-11-21T04:42:45;24.13;;;12.93;;
11665;SDS011;5889;51.350;6.708;2023-11-21T04:45:13;29.07;;;13.13;;
11665;SDS011;5889;51.350;6.708;2023-11-21T04:47:40;21.90;;;12.53;;
11665;SDS011;5889;51.350;6.708;2023-11-21T04:50:08;25.53;;;13.40;;
11665;SDS011;5889;51.350;6.708;2023-11-21T04:52:36;24.70;;;13.43;;
11665;SDS011;5889;51.350;6.708;2023-11-21T04:55:02;25.23;;;14.10;;
11665;SDS011;5889;51.350;6.708;2023-11-21T04:57:33;26.47;;;13.60;;
11665;SDS011;5889;51.350;6.708;2023-11-21T04:59:59;33.30;;;13.40;;
11665;SDS011;5889;51.350;6.708;2023-11-21T05:02:26;31.30;;;14.57;;
11665;SDS011;5889;51.350;6.708;2023-11-21T05:04:53;29.30;;;14.77;;
11665;SDS011;5889;51.350;6.708;2023-11-21T05:07:22;34.13;;;15.23;;
11665;SDS011;5889;51.350;6.708;2023-11-21T05:09:48;35.70;;;15.50;;
11665;SDS011;5889;51.350;6.708;2023-11-21T05:12:15;29.67;;;16.03;;
11665;SDS011;5889;51.350;6.708;2023-11-21T05:14:43;31.50;;;15.37;;
11665;SDS011;5889;51.350;6.708;2023-11-21T05:17:10;30.10;;;14.43;;
11665;SDS011;5889;51.350;6.708;2023-11-21T05:19:36;29.30;;;14.43;;
11665;SDS011;5889;51.350;6.708;2023-11-21T05:22:05;28.13;;;14.27;;
11665;SDS011;5889;51.350;6.708;2023-11-21T05:24:33;29.80;;;15.17;;
11665;SDS011;5889;51.350;6.708;2023-11-21T05:27:00;30.13;;;15.47;;
11665;SDS011;5889;51.350;6.708;2023-11-21T05:29:26;39.07;;;15.67;;
11665;SDS011;5889;51.350;6.708;2023-11-21T05:31:55;32.77;;;15.83;;
11665;SDS011;5889;51.350;6.708;2023-11-21T05:34:21;42.30;;;18.67;;
11665;SDS011;5889;51.350;6.708;2023-11-21T05:36:49;38.37;;;17.57;;
11665;SDS011;5889;51.350;6.708;2023-11-21T05:39:16;43.83;;;18.47;;
11665;SDS011;5889;51.350;6.708;2023-11-21T05:41:43;37.90;;;17.03;;
11665;SDS011;5889;51.350;6.708;2023-11-21T05:44:10;46.27;;;19.07;;
11665;SDS011;5889;51.350;6.708;2023-11-21T05:46:39;49.97;;;18.27;;
11665;SDS011;5889;51.350;6.708;2023-11-21T05:49:09;46.03;;;19.43;;
11665;SDS011;5889;51.350;6.708;2023-11-21T05:51:36;53.60;;;20.23;;
11665;SDS011;5889;51.350;6.708;2023-11-21T05:54:03;50.73;;;19.47;;
11665;SDS011;5889;51.350;6.708;2023-11-21T05:56:30;54.80;;;22.47;;
11665;SDS011;5889;51.350;6.708;2023-11-21T05:58:57;52.03;;;19.90;;
11665;SDS011;5889;51.350;6.708;2023-11-21T06:01:24;54.93;;;20.97;;
11665;SDS011;5889;51.350;6.708;2023-11-21T06:03:53;55.13;;;21.70;;
11665;SDS011;5889;51.350;6.708;2023-11-21T06:06:21;59.80;;;22.57;;
11665;SDS011;5889;51.350;6.708;2023-11-21T06:08:49;72.07;;;24.07;;
11665;SDS011;5889;51.350;6.708;2023-11-21T06:11:16;66.53;;;22.73;;
11665;SDS011;5889;51.350;6.708;2023-11-21T06:13:43;66.17;;;21.83;;
11665;SDS011;5889;51.350;6.708;2023-11-21T06:16:10;66.17;;;23.27;;
11665;SDS011;5889;51.350;6.708;2023-11-21T06:18:39;71.10;;;23.87;;
11665;SDS011;5889;51.350;6.708;2023-11-21T06:21:08;69.87;;;23.73;;
11665;SDS011;5889;51.350;6.708;2023-11-21T06:23:37;66.00;;;24.77;;
11665;SDS011;5889;51.350;6.708;2023-11-21T06:26:04;71.67;;;24.73;;
11665;SDS011;5889;51.350;6.708;2023-11-21T06:28:31;68.00;;;23.77;;
11665;SDS011;5889;51.350;6.708;2023-11-21T06:30:57;79.70;;;26.90;;
11665;SDS011;5889;51.350;6.708;2023-11-21T06:33:29;77.87;;;25.87;;
11665;SDS011;5889;51.350;6.708;2023-11-21T06:35:56;69.40;;;23.67;;
11665;SDS011;5889;51.350;6.708;2023-11-21T06:38:23;73.40;;;24.87;;
11665;SDS011;5889;51.350;6.708;2023-11-21T06:40:56;83.73;;;26.30;;
11665;SDS011;5889;51.350;6.708;2023-11-21T06:43:23;77.27;;;24.60;;
11665;SDS011;5889;51.350;6.708;2023-11-21T06:45:50;68.40;;;24.33;;
11665;SDS011;5889;51.350;6.708;2023-11-21T06:48:16;71.23;;;24.73;;
11665;SDS011;5889;51.350;6.708;2023-11-21T06:50:43;76.77;;;23.77;;
11665;SDS011;5889;51.350;6.708;2023-11-21T06:53:11;82.43;;;24.53;;
11665;SDS011;5889;51.350;6.708;2023-11-21T06:55:38;75.03;;;24.70;;
11665;SDS011;5889;51.350;6.708;2023-11-21T06:58:06;75.13;;;24.97;;
11665;SDS011;5889;51.350;6.708;2023-11-21T07:00:33;71.10;;;22.77;;
11665;SDS011;5889;51.350;6.708;2023-11-21T07:03:00;70.60;;;22.80;;
11665;SDS011;5889;51.350;6.708;2023-11-21T07:05:27;71.03;;;23.33;;
11665;SDS011;5889;51.350;6.708;2023-11-21T07:07:57;62.67;;;21.77;;
11665;SDS011;5889;51.350;6.708;2023-11-21T07:10:29;63.80;;;22.30;;
11665;SDS011;5889;51.350;6.708;2023-11-21T07:12:56;67.63;;;22.60;;
11665;SDS011;5889;51.350;6.708;2023-11-21T07:15:24;71.63;;;24.27;;
11665;SDS011;5889;51.350;6.708;2023-11-21T07:17:51;68.17;;;23.10;;
11665;SDS011;5889;51.350;6.708;2023-11-21T07:20:19;69.03;;;23.43;;
11665;SDS011;5889;51.350;6.708;2023-11-21T07:22:46;69.17;;;23.53;;
11665;SDS011;5889;51.350;6.708;2023-11-21T07:25:13;69.17;;;24.40;;
11665;SDS011;5889;51.350;6.708;2023-11-21T07:27:40;66.70;;;21.60;;
11665;SDS011;5889;51.350;6.708;2023-11-21T07:30:07;70.60;;;21.97;;
11665;SDS011;5889;51.350;6.708;2023-11-21T07:32:36;69.73;;;22.47;;
11665;SDS011;5889;51.350;6.708;2023-11-21T07:35:04;69.87;;;23.57;;
11665;SDS011;5889;51.350;6.708;2023-11-21T07:37:33;69.90;;;22.90;;
11665;SDS011;5889;51.350;6.708;2023-11-21T07:39:59;67.43;;;23.60;;
11665;SDS011;5889;51.350;6.708;2023-11-21T07:42:27;63.87;;;22.17;;
11665;SDS011;5889;51.350;6.708;2023-11-21T07:44:54;67.93;;;22.50;;
11665;SDS011;5889;51.350;6.708;2023-11-21T07:47:21;63.17;;;21.50;;
11665;SDS011;5889;51.350;6.708;2023-11-21T07:49:53;64.83;;;23.60;;
11665;SDS011;5889;51.350;6.708;2023-11-21T07:52:20;73.93;;;23.43;;
11665;SDS011;5889;51.350;6.708;2023-11-21T07:54:47;65.50;;;21.77;;
11665;SDS011;5889;51.350;6.708;2023-11-21T07:57:15;81.33;;;25.57;;
11665;SDS011;5889;51.350;6.708;2023-11-21T07:59:43;78.23;;;26.53;;
11665;SDS011;5889;51.350;6.708;2023-11-21T08:02:09;72.90;;;25.53;;
11665;SDS011;5889;51.350;6.708;2023-11-21T08:04:36;82.60;;;25.37;;
11665;SDS011;5889;51.350;6.708;2023-11-21T08:07:04;83.07;;;26.83;;
11665;SDS011;5889;51.350;6.708;2023-11-21T08:09:31;88.00;;;26.63;;
11665;SDS011;5889;51.350;6.708;2023-11-21T08:11:59;90.33;;;27.47;;
11665;SDS011;5889;51.350;6.708;2023-11-21T08:14:27;93.33;;;28.67;;
11665;SDS011;5889;51.350;6.708;2023-11-21T08:16:54;97.97;;;31.50;;
11665;SDS011;5889;51.350;6.708;2023-11-21T08:19:22;103.77;;;30.43;;
11665;SDS011;5889;51.350;6.708;2023-11-21T08:21:50;91.03;;;27.60;;
11665;SDS011;5889;51.350;6.708;2023-11-21T08:24:20;96.90;;;29.50;;
11665;SDS011;5889;51.350;6.708;2023-11-21T08:26:47;89.97;;;28.37;;
11665;SDS011;5889;51.350;6.708;2023-11-21T08:29:14;95.77;;;28.63;;
11665;SDS011;5889;51.350;6.708;2023-11-21T08:31:41;89.73;;;29.67;;
11665;SDS011;5889;51.350;6.708;2023-11-21T08:34:09;93.40;;;30.57;;
11665;SDS011;5889;51.350;6.708;2023-11-21T08:36:40;96.97;;;29.73;;
11665;SDS011;5889;51.350;6.708;2023-11-21T08:39:07;94.23;;;28.63;;
11665;SDS011;5889;51.350;6.708;2023-11-21T08:41:36;90.20;;;29.23;;
11665;SDS011;5889;51.350;6.708;2023-11-21T08:44:03;101.93;;;32.13;;
11665;SDS011;5889;51.350;6.708;2023-11-21T08:46:37;91.17;;;30.77;;
11665;SDS011;5889;51.350;6.708;2023-11-21T08:49:04;91.60;;;30.97;;
11665;SDS011;5889;51.350;6.708;2023-11-21T08:51:31;95.83;;;32.17;;
11665;SDS011;5889;51.350;6.708;2023-11-21T08:54:00;95.00;;;30.97;;
11665;SDS011;5889;51.350;6.708;2023-11-21T08:56:33;98.50;;;30.17;;
11665;SDS011;5889;51.350;6.708;2023-11-21T08:59:01;99.03;;;30.93;;
11665;SDS011;5889;51.350;6.708;2023-11-21T09:01:28;92.70;;;29.53;;
11665;SDS011;5889;51.350;6.708;2023-11-21T09:03:56;97.00;;;29.53;;
11665;SDS011;5889;51.350;6.708;2023-11-21T09:06:22;97.67;;;31.40;;
11665;SDS011;5889;51.350;6.708;2023-11-21T09:08:49;88.80;;;30.23;;
11665;SDS011;5889;51.350;6.708;2023-11-21T09:11:16;98.47;;;31.27;;
11665;SDS011;5889;51.350;6.708;2023-11-21T09:13:43;101.53;;;32.23;;
11665;SDS011;5889;51.350;6.708;2023-11-21T09:16:13;97.40;;;32.03;;
11665;SDS011;5889;51.350;6.708;2023-11-21T09:18:40;102.87;;;31.70;;
11665;SDS011;5889;51.350;6.708;2023-11-21T09:21:07;97.97;;;31.10;;
11665;SDS011;5889;51.350;6.708;2023-11-21T09:23:37;93.07;;;31.03;;
11665;SDS011;5889;51.350;6.708;2023-11-21T09:26:04;89.83;;;30.63;;
11665;SDS011;5889;51.350;6.708;2023-11-21T09:28:31;96.93;;;29.10;;
11665;SDS011;5889;51.350;6.708;2023-11-21T09:30:58;105.17;;;31.33;;
11665;SDS011;5889;51.350;6.708;2023-11-21T09:33:27;98.83;;;31.03;;
11665;SDS011;5889;51.350;6.708;2023-11-21T09:35:55;91.17;;;29.17;;
11665;SDS011;5889;51.350;6.708;2023-11-21T09:38:22;87.13;;;29.43;;
11665;SDS011;5889;51.350;6.708;2023-11-21T09:40:49;89.63;;;29.83;;
11665;SDS011;5889;51.350;6.708;2023-11-21T09:43:17;93.17;;;29.17;;
11665;SDS011;5889;51.350;6.708;2023-11-21T09:45:45;95.70;;;29.40;;
11665;SDS011;5889;51.350;6.708;2023-11-21T09:48:15;89.37;;;30.03;;
11665;SDS011;5889;51.350;6.708;2023-11-21T09:50:45;89.13;;;29.43;;
11665;SDS011;5889;51.350;6.708;2023-11-21T09:53:14;89.07;;;31.17;;
11665;SDS011;5889;51.350;6.708;2023-11-21T09:55:44;79.20;;;29.23;;
11665;SDS011;5889;51.350;6.708;2023-11-21T09:58:13;84.97;;;29.77;;
11665;SDS011;5889;51.350;6.708;2023-11-21T10:00:40;91.30;;;31.77;;
11665;SDS011;5889;51.350;6.708;2023-11-21T10:03:08;77.10;;;29.93;;
11665;SDS011;5889;51.350;6.708;2023-11-21T10:05:35;81.23;;;29.57;;
11665;SDS011;5889;51.350;6.708;2023-11-21T10:08:04;85.13;;;30.03;;
11665;SDS011;5889;51.350;6.708;2023-11-21T10:10:34;85.33;;;29.73;;
11665;SDS011;5889;51.350;6.708;2023-11-21T10:13:02;79.63;;;27.63;;
11665;SDS011;5889;51.350;6.708;2023-11-21T10:15:32;73.77;;;28.13;;
11665;SDS011;5889;51.350;6.708;2023-11-21T10:18:01;78.53;;;27.97;;
11665;SDS011;5889;51.350;6.708;2023-11-21T10:20:29;67.47;;;26.97;;
11665;SDS011;5889;51.350;6.708;2023-11-21T10:22:58;66.40;;;27.40;;
11665;SDS011;5889;51.350;6.708;2023-11-21T10:25:28;73.27;;;28.23;;
11665;SDS011;5889;51.350;6.708;2023-11-21T10:27:58;76.40;;;31.03;;
11665;SDS011;5889;51.350;6.708;2023-11-21T10:30:31;85.10;;;32.43;;
11665;SDS011;5889;51.350;6.708;2023-11-21T10:33:02;78.23;;;31.87;;
11665;SDS011;5889;51.350;6.708;2023-11-21T10:35:48;76.53;;;31.33;;
11665;SDS011;5889;51.350;6.708;2023-11-21T10:38:16;71.77;;;32.07;;
11665;SDS011;5889;51.350;6.708;2023-11-21T10:40:44;78.10;;;32.80;;
11665;SDS011;5889;51.350;6.708;2023-11-21T10:43:11;75.33;;;32.03;;
11665;SDS011;5889;51.350;6.708;2023-11-21T10:45:40;71.57;;;29.67;;
11665;SDS011;5889;51.350;6.708;2023-11-21T10:48:08;82.60;;;35.67;;
11665;SDS011;5889;51.350;6.708;2023-11-21T10:50:40;79.80;;;33.63;;
11665;SDS011;5889;51.350;6.708;2023-11-21T10:53:07;84.40;;;33.40;;
11665;SDS011;5889;51.350;6.708;2023-11-21T10:55:34;83.40;;;33.70;;
11665;SDS011;5889;51.350;6.708;2023-11-21T10:58:02;82.10;;;34.67;;
11665;SDS011;5889;51.350;6.708;2023-11-21T11:00:32;81.77;;;33.80;;
11665;SDS011;5889;51.350;6.708;2023-11-21T11:02:59;87.83;;;32.73;;
11665;SDS011;5889;51.350;6.708;2023-11-21T11:05:27;73.37;;;31.20;;
11665;SDS011;5889;51.350;6.708;2023-11-21T11:07:56;70.77;;;30.50;;
11665;SDS011;5889;51.350;6.708;2023-11-21T11:10:26;69.63;;;28.70;;
11665;SDS011;5889;51.350;6.708;2023-11-21T11:12:54;70.63;;;28.00;;
11665;SDS011;5889;51.350;6.708;2023-11-21T11:15:23;62.07;;;25.63;;
11665;SDS011;5889;51.350;6.708;2023-11-21T11:17:51;64.80;;;25.10;;
11665;SDS011;5889;51.350;6.708;2023-11-21T11:20:21;62.83;;;28.70;;
11665;SDS011;5889;51.350;6.708;2023-11-21T11:22:51;62.37;;;24.87;;
11665;SDS011;5889;51.350;6.708;2023-11-21T11:25:44;59.43;;;27.40;;
11665;SDS011;5889;51.350;6.708;2023-11-21T11:28:19;75.63;;;32.40;;
11665;SDS011;5889;51.350;6.708;2023-11-21T11:30:53;74.70;;;29.27;;
11665;SDS011;5889;51.350;6.708;2023-11-21T11:33:34;69.87;;;27.80;;
11665;SDS011;5889;51.350;6.708;2023-11-21T11:36:06;62.93;;;24.80;;
11665;SDS011;5889;51.350;6.708;2023-11-21T11:38:36;57.13;;;24.80;;
11665;SDS011;5889;51.350;6.708;2023-11-21T11:41:03;51.00;;;22.67;;
11665;SDS011;5889;51.350;6.708;2023-11-21T11:43:31;54.57;;;24.27;;
11665;SDS011;5889;51.350;6.708;2023-11-21T11:49:20;59.00;;;26.27;;
11665;SDS011;5889;51.350;6.708;2023-11-21T11:54:51;57.90;;;25.73;;
11665;SDS011;5889;51.350;6.708;2023-11-21T11:57:19;59.83;;;23.87;;
11665;SDS011;5889;51.350;6.708;2023-11-21T12:00:09;39.63;;;17.90;;
11665;SDS011;5889;51.350;6.708;2023-11-21T12:02:44;36.63;;;17.87;;
11665;SDS011;5889;51.350;6.708;2023-11-21T12:05:12;40.47;;;19.13;;
11665;SDS011;5889;51.350;6.708;2023-11-21T12:07:44;46.30;;;19.93;;
11665;SDS011;5889;51.350;6.708;2023-11-21T12:10:15;52.10;;;21.60;;
11665;SDS011;5889;51.350;6.708;2023-11-21T12:12:43;51.87;;;23.70;;
11665;SDS011;5889;51.350;6.708;2023-11-21T12:15:11;54.60;;;24.70;;
11665;SDS011;5889;51.350;6.708;2023-11-21T12:17:39;51.73;;;22.33;;
11665;SDS011;5889;51.350;6.708;2023-11-21T12:20:08;51.00;;;21.97;;
11665;SDS011;5889;51.350;6.708;2023-11-21T12:23:18;54.63;;;24.23;;
11665;SDS011;5889;51.350;6.708;2023-11-21T12:25:45;53.37;;;24.73;;
11665;SDS011;5889;51.350;6.708;2023-11-21T12:28:12;57.07;;;25.07;;
11665;SDS011;5889;51.350;6.708;2023-11-21T12:30:39;58.17;;;24.93;;
11665;SDS011;5889;51.350;6.708;2023-11-21T12:33:06;63.87;;;25.93;;
11665;SDS011;5889;51.350;6.708;2023-11-21T12:35:38;57.63;;;25.40;;
11665;SDS011;5889;51.350;6.708;2023-11-21T12:38:06;59.03;;;27.60;;
11665;SDS011;5889;51.350;6.708;2023-11-21T12:40:34;57.23;;;25.53;;
11665;SDS011;5889;51.350;6.708;2023-11-21T12:43:15;62.07;;;27.07;;
11665;SDS011;5889;51.350;6.708;2023-11-21T12:45:45;62.90;;;25.43;;
11665;SDS011;5889;51.350;6.708;2023-11-21T12:48:12;67.03;;;28.33;;
11665;SDS011;5889;51.350;6.708;2023-11-21T12:50:41;65.87;;;28.80;;
11665;SDS011;5889;51.350;6.708;2023-11-21T12:53:09;57.03;;;27.10;;
11665;SDS011;5889;51.350;6.708;2023-11-21T12:55:37;61.07;;;28.80;;
11665;SDS011;5889;51.350;6.708;2023-11-21T12:58:05;68.17;;;30.63;;
11665;SDS011;5889;51.350;6.708;2023-11-21T13:00:34;72.60;;;34.77;;
11665;SDS011;5889;51.350;6.708;2023-11-21T13:03:03;63.67;;;32.50;;
11665;SDS011;5889;51.350;6.708;2023-11-21T13:05:32;74.57;;;32.73;;
11665;SDS011;5889;51.350;6.708;2023-11-21T13:08:02;74.30;;;35.07;;
11665;SDS011;5889;51.350;6.708;2023-11-21T13:10:32;71.43;;;33.07;;
11665;SDS011;5889;51.350;6.708;2023-11-21T13:13:01;79.87;;;33.73;;
11665;SDS011;5889;51.350;6.708;2023-11-21T13:15:33;62.33;;;28.80;;
11665;SDS011;5889;51.350;6.708;2023-11-21T13:18:01;59.57;;;29.50;;
11665;SDS011;5889;51.350;6.708;2023-11-21T13:20:28;54.80;;;24.97;;
11665;SDS011;5889;51.350;6.708;2023-11-21T13:22:56;56.87;;;24.63;;
11665;SDS011;5889;51.350;6.708;2023-11-21T13:25:25;53.33;;;26.37;;
11665;SDS011;5889;51.350;6.708;2023-11-21T13:27:53;66.87;;;31.70;;
11665;SDS011;5889;51.350;6.708;2023-11-21T13:30:20;59.67;;;26.23;;
11665;SDS011;5889;51.350;6.708;2023-11-21T13:32:48;58.77;;;25.47;;
11665;SDS011;5889;51.350;6.708;2023-11-21T13:35:16;59.40;;;26.80;;
11665;SDS011;5889;51.350;6.708;2023-11-21T13:37:47;51.40;;;24.70;;
11665;SDS011;5889;51.350;6.708;2023-11-21T13:40:16;50.53;;;25.10;;
11665;SDS011;5889;51.350;6.708;2023-11-21T13:42:49;47.77;;;20.87;;
11665;SDS011;5889;51.350;6.708;2023-11-21T13:45:18;49.27;;;20.67;;
11665;SDS011;5889;51.350;6.708;2023-11-21T13:47:47;45.47;;;20.53;;
11665;SDS011;5889;51.350;6.708;2023-11-21T13:50:16;41.20;;;20.30;;
11665;SDS011;5889;51.350;6.708;2023-11-21T13:52:47;37.30;;;17.20;;
11665;SDS011;5889;51.350;6.708;2023-11-21T13:55:14;35.17;;;18.37;;
11665;SDS011;5889;51.350;6.708;2023-11-21T13:57:41;40.37;;;18.47;;
11665;SDS011;5889;51.350;6.708;2023-11-21T14:00:16;35.80;;;17.37;;
11665;SDS011;5889;51.350;6.708;2023-11-21T14:02:57;32.10;;;17.00;;
11665;SDS011;5889;51.350;6.708;2023-11-21T14:05:31;32.43;;;17.20;;
11665;SDS011;5889;51.350;6.708;2023-11-21T14:07:59;27.70;;;14.37;;
11665;SDS011;5889;51.350;6.708;2023-11-21T14:10:29;23.47;;;12.60;;
11665;SDS011;5889;51.350;6.708;2023-11-21T14:13:02;19.27;;;10.47;;
11665;SDS011;5889;51.350;6.708;2023-11-21T14:15:33;18.47;;;9.70;;
11665;SDS011;5889;51.350;6.708;2023-11-21T14:18:03;16.10;;;8.90;;
11665;SDS011;5889;51.350;6.708;2023-11-21T14:20:33;15.87;;;9.27;;
11665;SDS011;5889;51.350;6.708;2023-11-21T14:23:01;19.30;;;10.60;;
11665;SDS011;5889;51.350;6.708;2023-11-21T14:25:28;22.67;;;10.70;;
11665;SDS011;5889;51.350;6.708;2023-11-21T14:27:55;20.73;;;10.40;;
11665;SDS011;5889;51.350;6.708;2023-11-21T14:30:22;20.27;;;11.83;;
11665;SDS011;5889;51.350;6.708;2023-11-21T14:32:51;19.57;;;10.37;;
11665;SDS011;5889;51.350;6.708;2023-11-21T14:35:18;26.67;;;13.63;;
11665;SDS011;5889;51.350;6.708;2023-11-21T14:37:44;21.47;;;11.73;;
11665;SDS011;5889;51.350;6.708;2023-11-21T14:40:12;21.20;;;11.33;;
11665;SDS011;5889;51.350;6.708;2023-11-21T14:42:41;22.07;;;11.70;;
11665;SDS011;5889;51.350;6.708;2023-11-21T14:45:09;19.27;;;12.43;;
11665;SDS011;5889;51.350;6.708;2023-11-21T14:47:38;25.60;;;12.30;;